sensor_id;sensor_type;location;lat;lon;timestamp;pressure;altitude;pressure_sealevel;temperature;humidity
55550;BME280;41397;49.972;18.944;2023-02-25T00:02:30;99694.22;;;11.44;70.38
55550;BME280;41397;49.972;18.944;2023-02-25T00:05:31;99681.93;;;11.48;70.52
55550;BME280;41397;49.972;18.944;2023-02-25T00:08:35;99694.61;;;11.49;70.56
55550;BME280;41397;49.972;18.944;2023-02-25T00:11:36;99690.70;;;11.51;70.30
55550;BME280;41397;49.972;18.944;2023-02-25T00:14:38;99685.91;;;11.53;70.44
55550;BME280;41397;49.972;18.944;2023-02-25T00:17:40;99685.22;;;11.51;70.08
55550;BME280;41397;49.972;18.944;2023-02-25T00:20:43;99670.51;;;11.52;69.98
55550;BME280;41397;49.972;18.944;2023-02-25T00:23:46;99657.67;;;11.53;70.34
55550;BME280;41397;49.972;18.944;2023-02-25T00:26:48;99647.25;;;11.56;69.84
55550;BME280;41397;49.972;18.944;2023-02-25T00:29:54;99648.98;;;11.58;70.05
55550;BME280;41397;49.972;18.944;2023-02-25T00:32:55;99642.48;;;11.59;69.90
55550;BME280;41397;49.972;18.944;2023-02-25T00:35:56;99645.07;;;11.60;70.20
55550;BME280;41397;49.972;18.944;2023-02-25T00:38:58;99640.77;;;11.58;69.87
55550;BME280;41397;49.972;18.944;2023-02-25T00:41:59;99633.73;;;11.55;70.08
55550;BME280;41397;49.972;18.944;2023-02-25T00:45:01;99647.25;;;11.56;70.18
55550;BME280;41397;49.972;18.944;2023-02-25T00:48:02;99651.88;;;11.56;70.23
55550;BME280;41397;49.972;18.944;2023-02-25T00:51:08;99644.69;;;11.55;70.25
55550;BME280;41397;49.972;18.944;2023-02-25T00:54:10;99625.46;;;11.47;69.48
55550;BME280;41397;49.972;18.944;2023-02-25T00:57:11;99621.70;;;11.48;68.55
55550;BME280;41397;49.972;18.944;2023-02-25T01:00:13;99626.17;;;11.49;68.24
55550;BME280;41397;49.972;18.944;2023-02-25T01:03:18;99608.34;;;11.45;68.82
55550;BME280;41397;49.972;18.944;2023-02-25T01:06:20;99603.50;;;11.39;68.31
55550;BME280;41397;49.972;18.944;2023-02-25T01:09:21;99585.20;;;11.39;68.95
55550;BME280;41397;49.972;18.944;2023-02-25T01:12:23;99584.34;;;11.39;69.44
55550;BME280;41397;49.972;18.944;2023-02-25T01:15:24;99586.84;;;11.32;69.17
55550;BME280;41397;49.972;18.944;2023-02-25T01:18:25;99579.52;;;11.32;69.26
55550;BME280;41397;49.972;18.944;2023-02-25T01:21:33;99585.84;;;11.33;69.60
55550;BME280;41397;49.972;18.944;2023-02-25T01:24:35;99585.99;;;11.31;70.18
55550;BME280;41397;49.972;18.944;2023-02-25T01:27:42;99584.44;;;11.29;70.91
55550;BME280;41397;49.972;18.944;2023-02-25T01:30:44;99576.79;;;11.32;71.40
55550;BME280;41397;49.972;18.944;2023-02-25T01:33:47;99578.16;;;11.37;71.59
55550;BME280;41397;49.972;18.944;2023-02-25T01:36:49;99564.33;;;11.38;71.41
55550;BME280;41397;49.972;18.944;2023-02-25T01:39:50;99570.48;;;11.40;71.22
55550;BME280;41397;49.972;18.944;2023-02-25T01:42:52;99567.45;;;11.43;71.26
55550;BME280;41397;49.972;18.944;2023-02-25T01:45:54;99570.86;;;11.45;70.98
55550;BME280;41397;49.972;18.944;2023-02-25T01:48:55;99576.34;;;11.45;70.68
55550;BME280;41397;49.972;18.944;2023-02-25T01:55:09;99573.45;;;11.47;70.78
55550;BME280;41397;49.972;18.944;2023-02-25T01:58:11;99576.02;;;11.48;70.58
55550;BME280;41397;49.972;18.944;2023-02-25T02:01:14;99562.17;;;11.50;70.37
55550;BME280;41397;49.972;18.944;2023-02-25T02:04:20;99566.62;;;11.51;70.54
55550;BME280;41397;49.972;18.944;2023-02-25T02:07:25;99568.50;;;11.50;70.42
55550;BME280;41397;49.972;18.944;2023-02-25T02:10:26;99568.17;;;11.53;70.08
55550;BME280;41397;49.972;18.944;2023-02-25T02:13:29;99552.77;;;11.52;70.33
55550;BME280;41397;49.972;18.944;2023-02-25T02:16:44;99558.96;;;11.54;69.97
55550;BME280;41397;49.972;18.944;2023-02-25T02:19:57;99559.10;;;11.53;70.03
55550;BME280;41397;49.972;18.944;2023-02-25T02:23:10;99551.74;;;11.53;69.88
55550;BME280;41397;49.972;18.944;2023-02-25T02:36:09;99534.84;;;11.58;70.25
55550;BME280;41397;49.972;18.944;2023-02-25T02:42:37;99546.33;;;11.62;70.29
55550;BME280;41397;49.972;18.944;2023-02-25T02:52:07;99567.22;;;11.63;70.66
55550;BME280;41397;49.972;18.944;2023-02-25T02:55:26;99569.78;;;11.64;70.52
55550;BME280;41397;49.972;18.944;2023-02-25T03:01:51;99573.33;;;11.56;70.36
55550;BME280;41397;49.972;18.944;2023-02-25T03:05:04;99577.90;;;11.48;70.33
55550;BME280;41397;49.972;18.944;2023-02-25T03:08:14;99586.43;;;11.45;69.08
55550;BME280;41397;49.972;18.944;2023-02-25T03:11:18;99582.64;;;11.38;68.40
55550;BME280;41397;49.972;18.944;2023-02-25T03:14:19;99595.31;;;11.21;66.51
55550;BME280;41397;49.972;18.944;2023-02-25T03:17:26;99601.60;;;11.13;68.17
55550;BME280;41397;49.972;18.944;2023-02-25T03:20:36;99612.84;;;11.10;68.66
55550;BME280;41397;49.972;18.944;2023-02-25T03:23:42;99615.36;;;11.03;67.77
55550;BME280;41397;49.972;18.944;2023-02-25T03:26:46;99625.13;;;10.88;67.19
55550;BME280;41397;49.972;18.944;2023-02-25T03:29:48;99629.97;;;10.76;66.26
55550;BME280;41397;49.972;18.944;2023-02-25T03:33:00;99640.41;;;10.63;66.45
55550;BME280;41397;49.972;18.944;2023-02-25T03:36:09;99637.86;;;10.61;66.59
55550;BME280;41397;49.972;18.944;2023-02-25T03:39:17;99650.85;;;10.50;65.78
55550;BME280;41397;49.972;18.944;2023-02-25T03:42:28;99663.23;;;10.54;66.20
55550;BME280;41397;49.972;18.944;2023-02-25T03:45:33;99663.13;;;10.46;65.59
55550;BME280;41397;49.972;18.944;2023-02-25T03:48:36;99669.52;;;10.27;66.23
55550;BME280;41397;49.972;18.944;2023-02-25T03:51:40;99679.95;;;10.04;66.26
55550;BME280;41397;49.972;18.944;2023-02-25T03:54:52;99687.91;;;9.87;66.88
55550;BME280;41397;49.972;18.944;2023-02-25T03:57:54;99679.33;;;9.82;66.55
55550;BME280;41397;49.972;18.944;2023-02-25T04:00:57;99683.81;;;9.64;66.67
55550;BME280;41397;49.972;18.944;2023-02-25T04:04:03;99682.92;;;9.73;66.95
55550;BME280;41397;49.972;18.944;2023-02-25T04:07:08;99689.15;;;9.55;67.62
55550;BME280;41397;49.972;18.944;2023-02-25T04:10:11;99696.87;;;9.60;67.49
55550;BME280;41397;49.972;18.944;2023-02-25T04:13:15;99694.02;;;9.71;67.19
55550;BME280;41397;49.972;18.944;2023-02-25T04:16:17;99693.96;;;9.81;67.53
55550;BME280;41397;49.972;18.944;2023-02-25T04:19:18;99701.29;;;9.90;67.15
55550;BME280;41397;49.972;18.944;2023-02-25T04:22:19;99702.14;;;9.91;67.24
55550;BME280;41397;49.972;18.944;2023-02-25T04:25:21;99703.00;;;9.91;67.43
55550;BME280;41397;49.972;18.944;2023-02-25T04:28:23;99694.64;;;9.93;66.78
55550;BME280;41397;49.972;18.944;2023-02-25T04:31:24;99708.58;;;9.99;66.44
55550;BME280;41397;49.972;18.944;2023-02-25T04:34:25;99712.21;;;9.90;66.29
55550;BME280;41397;49.972;18.944;2023-02-25T04:37:27;99704.03;;;9.81;66.05
55550;BME280;41397;49.972;18.944;2023-02-25T04:40:28;99704.34;;;9.77;66.48
55550;BME280;41397;49.972;18.944;2023-02-25T04:43:32;99705.18;;;9.78;66.91
55550;BME280;41397;49.972;18.944;2023-02-25T04:46:36;99709.36;;;9.82;67.04
55550;BME280;41397;49.972;18.944;2023-02-25T04:49:37;99696.27;;;9.86;66.97
55550;BME280;41397;49.972;18.944;2023-02-25T04:52:47;99703.73;;;9.84;66.76
55550;BME280;41397;49.972;18.944;2023-02-25T04:55:48;99714.95;;;9.81;66.46
55550;BME280;41397;49.972;18.944;2023-02-25T04:58:50;99713.08;;;9.81;66.24
55550;BME280;41397;49.972;18.944;2023-02-25T05:01:51;99704.03;;;9.81;66.46
55550;BME280;41397;49.972;18.944;2023-02-25T05:04:53;99710.21;;;9.83;66.71
55550;BME280;41397;49.972;18.944;2023-02-25T05:07:54;99707.33;;;9.84;66.69
55550;BME280;41397;49.972;18.944;2023-02-25T05:10:55;99701.72;;;9.86;66.30
55550;BME280;41397;49.972;18.944;2023-02-25T05:13:57;99713.38;;;9.88;67.07
55550;BME280;41397;49.972;18.944;2023-02-25T05:16:58;99722.25;;;9.90;66.67
55550;BME280;41397;49.972;18.944;2023-02-25T05:20:00;99706.59;;;9.92;66.95
55550;BME280;41397;49.972;18.944;2023-02-25T05:23:01;99712.05;;;9.92;66.59
55550;BME280;41397;49.972;18.944;2023-02-25T05:26:03;99721.10;;;9.92;66.75
55550;BME280;41397;49.972;18.944;2023-02-25T05:29:06;99728.14;;;9.95;66.83
55550;BME280;41397;49.972;18.944;2023-02-25T05:32:07;99720.24;;;9.92;66.96
55550;BME280;41397;49.972;18.944;2023-02-25T05:35:09;99711.92;;;9.93;66.44
55550;BME280;41397;49.972;18.944;2023-02-25T05:38:11;99716.22;;;9.96;66.43
55550;BME280;41397;49.972;18.944;2023-02-25T05:41:12;99718.23;;;9.94;66.53
55550;BME280;41397;49.972;18.944;2023-02-25T05:44:14;99705.86;;;9.90;66.30
55550;BME280;41397;49.972;18.944;2023-02-25T05:47:16;99691.66;;;9.86;66.16
55550;BME280;41397;49.972;18.944;2023-02-25T05:50:18;99703.02;;;9.82;65.51
55550;BME280;41397;49.972;18.944;2023-02-25T05:53:19;99700.58;;;9.78;65.82
55550;BME280;41397;49.972;18.944;2023-02-25T05:56:22;99714.53;;;9.75;65.72
55550;BME280;41397;49.972;18.944;2023-02-25T05:59:25;99707.20;;;9.76;65.51
55550;BME280;41397;49.972;18.944;2023-02-25T06:02:26;99715.39;;;9.76;65.16
55550;BME280;41397;49.972;18.944;2023-02-25T06:05:27;99720.84;;;9.76;64.85
55550;BME280;41397;49.972;18.944;2023-02-25T06:08:32;99720.72;;;9.77;64.99
55550;BME280;41397;49.972;18.944;2023-02-25T06:11:34;99717.98;;;9.77;64.86
55550;BME280;41397;49.972;18.944;2023-02-25T06:14:36;99707.35;;;9.74;64.40
55550;BME280;41397;49.972;18.944;2023-02-25T06:17:37;99714.10;;;9.70;63.77
55550;BME280;41397;49.972;18.944;2023-02-25T06:20:39;99714.95;;;9.71;63.93
55550;BME280;41397;49.972;18.944;2023-02-25T06:23:42;99717.55;;;9.72;63.89
55550;BME280;41397;49.972;18.944;2023-02-25T06:26:44;99722.17;;;9.72;64.06
55550;BME280;41397;49.972;18.944;2023-02-25T06:29:47;99726.63;;;9.63;63.77
55550;BME280;41397;49.972;18.944;2023-02-25T06:32:48;99736.67;;;9.63;63.81
55550;BME280;41397;49.972;18.944;2023-02-25T06:35:51;99724.29;;;9.68;63.78
55550;BME280;41397;49.972;18.944;2023-02-25T06:38:53;99735.52;;;9.65;63.28
55550;BME280;41397;49.972;18.944;2023-02-25T06:41:55;99731.63;;;9.68;63.91
55550;BME280;41397;49.972;18.944;2023-02-25T06:44:56;99739.69;;;9.69;63.91
55550;BME280;41397;49.972;18.944;2023-02-25T06:47:57;99741.57;;;9.69;63.90
55550;BME280;41397;49.972;18.944;2023-02-25T06:50:59;99743.70;;;9.65;63.83
55550;BME280;41397;49.972;18.944;2023-02-25T06:54:03;99741.99;;;9.74;63.95
55550;BME280;41397;49.972;18.944;2023-02-25T06:57:04;99740.13;;;9.65;63.59
55550;BME280;41397;49.972;18.944;2023-02-25T07:00:06;99741.70;;;9.67;63.34
55550;BME280;41397;49.972;18.944;2023-02-25T07:03:11;99741.14;;;9.64;63.14
55550;BME280;41397;49.972;18.944;2023-02-25T07:06:13;99738.41;;;9.64;63.45
55550;BME280;41397;49.972;18.944;2023-02-25T07:09:15;99742.71;;;9.56;63.47
55550;BME280;41397;49.972;18.944;2023-02-25T07:12:17;99741.42;;;9.51;63.50
55550;BME280;41397;49.972;18.944;2023-02-25T07:15:20;99732.97;;;9.44;63.14
55550;BME280;41397;49.972;18.944;2023-02-25T07:18:21;99738.86;;;9.49;63.29
55550;BME280;41397;49.972;18.944;2023-02-25T07:21:23;99738.56;;;9.52;63.04
55550;BME280;41397;49.972;18.944;2023-02-25T07:24:34;99746.16;;;9.59;63.21
55550;BME280;41397;49.972;18.944;2023-02-25T07:27:39;99741.13;;;9.54;63.20
55550;BME280;41397;49.972;18.944;2023-02-25T07:30:42;99735.80;;;9.62;62.73
55550;BME280;41397;49.972;18.944;2023-02-25T07:33:44;99735.09;;;9.70;63.35
55550;BME280;41397;49.972;18.944;2023-02-25T07:36:46;99731.34;;;9.71;62.82
55550;BME280;41397;49.972;18.944;2023-02-25T07:39:48;99737.66;;;9.81;62.66
55550;BME280;41397;49.972;18.944;2023-02-25T07:42:50;99734.02;;;10.00;64.17
55550;BME280;41397;49.972;18.944;2023-02-25T07:45:55;99727.22;;;10.14;62.74
55550;BME280;41397;49.972;18.944;2023-02-25T07:48:56;99726.04;;;10.26;61.88
55550;BME280;41397;49.972;18.944;2023-02-25T07:51:58;99734.34;;;10.44;62.03
55550;BME280;41397;49.972;18.944;2023-02-25T07:55:03;99731.77;;;10.70;60.99
55550;BME280;41397;49.972;18.944;2023-02-25T07:58:05;99733.97;;;10.84;61.10
55550;BME280;41397;49.972;18.944;2023-02-25T08:01:21;99737.52;;;10.95;60.43
55550;BME280;41397;49.972;18.944;2023-02-25T08:04:18;99735.02;;;11.01;58.29
55550;BME280;41397;49.972;18.944;2023-02-25T08:07:19;99732.13;;;11.03;57.42
55550;BME280;41397;49.972;18.944;2023-02-25T08:10:21;99745.05;;;11.10;58.26
55550;BME280;41397;49.972;18.944;2023-02-25T08:13:22;99746.30;;;11.16;57.50
55550;BME280;41397;49.972;18.944;2023-02-25T08:16:25;99743.57;;;11.16;57.52
55550;BME280;41397;49.972;18.944;2023-02-25T08:19:26;99743.66;;;11.24;57.00
55550;BME280;41397;49.972;18.944;2023-02-25T08:22:28;99748.87;;;11.18;56.53
55550;BME280;41397;49.972;18.944;2023-02-25T08:25:29;99754.84;;;11.13;55.47
55550;BME280;41397;49.972;18.944;2023-02-25T08:28:32;99755.82;;;11.12;55.67
55550;BME280;41397;49.972;18.944;2023-02-25T08:31:34;99750.52;;;11.10;55.91
55550;BME280;41397;49.972;18.944;2023-02-25T08:34:35;99760.67;;;11.18;56.08
55550;BME280;41397;49.972;18.944;2023-02-25T08:37:38;99755.91;;;11.20;55.88
55550;BME280;41397;49.972;18.944;2023-02-25T08:40:41;99768.59;;;11.21;55.81
55550;BME280;41397;49.972;18.944;2023-02-25T08:43:42;99767.97;;;11.27;55.89
55550;BME280;41397;49.972;18.944;2023-02-25T08:46:44;99770.63;;;11.19;55.03
55550;BME280;41397;49.972;18.944;2023-02-25T08:49:45;99771.08;;;11.15;54.86
55550;BME280;41397;49.972;18.944;2023-02-25T08:52:49;99773.67;;;11.16;54.81
55550;BME280;41397;49.972;18.944;2023-02-25T08:55:51;99764.44;;;11.17;55.09
55550;BME280;41397;49.972;18.944;2023-02-25T08:58:55;99771.24;;;11.13;54.37
55550;BME280;41397;49.972;18.944;2023-02-25T09:01:57;99772.87;;;11.06;54.90
55550;BME280;41397;49.972;18.944;2023-02-25T09:04:58;99773.18;;;11.03;54.47
55550;BME280;41397;49.972;18.944;2023-02-25T09:08:00;99768.23;;;10.88;54.34
55550;BME280;41397;49.972;18.944;2023-02-25T09:11:04;99778.18;;;10.80;54.38
55550;BME280;41397;49.972;18.944;2023-02-25T09:14:06;99788.44;;;10.78;55.11
55550;BME280;41397;49.972;18.944;2023-02-25T09:17:08;99779.00;;;10.62;55.55
55550;BME280;41397;49.972;18.944;2023-02-25T09:20:09;99776.88;;;10.56;55.22
55550;BME280;41397;49.972;18.944;2023-02-25T09:29:37;99775.71;;;10.59;55.04
55550;BME280;41397;49.972;18.944;2023-02-25T10:26:51;99763.29;;;11.38;53.21
55550;BME280;41397;49.972;18.944;2023-02-25T10:29:58;99765.86;;;11.39;53.23
55550;BME280;41397;49.972;18.944;2023-02-25T10:33:14;99769.76;;;11.37;53.11
55550;BME280;41397;49.972;18.944;2023-02-25T10:36:26;99757.26;;;11.16;52.48
55550;BME280;41397;49.972;18.944;2023-02-25T10:39:29;99756.63;;;11.22;53.04
55550;BME280;41397;49.972;18.944;2023-02-25T10:42:32;99766.14;;;11.18;52.75
55550;BME280;41397;49.972;18.944;2023-02-25T10:45:34;99756.54;;;11.14;53.08
55550;BME280;41397;49.972;18.944;2023-02-25T10:48:37;99757.71;;;11.11;53.88
55550;BME280;41397;49.972;18.944;2023-02-25T10:54:53;99760.56;;;10.92;53.42
55550;BME280;41397;49.972;18.944;2023-02-25T10:57:55;99756.27;;;10.89;53.21
55550;BME280;41397;49.972;18.944;2023-02-25T11:01:08;99760.25;;;10.95;53.69
55550;BME280;41397;49.972;18.944;2023-02-25T11:04:18;99763.94;;;11.04;53.50
55550;BME280;41397;49.972;18.944;2023-02-25T11:11:12;99770.76;;;11.18;54.18
55550;BME280;41397;49.972;18.944;2023-02-25T11:14:01;99773.59;;;11.08;53.02
55550;BME280;41397;49.972;18.944;2023-02-25T11:17:14;99772.46;;;11.01;53.43
55550;BME280;41397;49.972;18.944;2023-02-25T11:20:24;99773.31;;;11.01;54.00
55550;BME280;41397;49.972;18.944;2023-02-25T11:23:32;99766.98;;;11.01;53.56
55550;BME280;41397;49.972;18.944;2023-02-25T11:26:35;99769.58;;;11.02;53.54
55550;BME280;41397;49.972;18.944;2023-02-25T11:29:42;99771.74;;;10.99;53.49
55550;BME280;41397;49.972;18.944;2023-02-25T11:32:51;99770.44;;;11.03;53.65
55550;BME280;41397;49.972;18.944;2023-02-25T11:35:59;99765.37;;;11.08;53.93
55550;BME280;41397;49.972;18.944;2023-02-25T11:42:25;99792.10;;;11.14;53.90
55550;BME280;41397;49.972;18.944;2023-02-25T11:45:39;99777.58;;;11.14;53.64
55550;BME280;41397;49.972;18.944;2023-02-25T11:48:51;99776.00;;;11.11;53.73
55550;BME280;41397;49.972;18.944;2023-02-25T11:52:02;99767.80;;;11.11;53.70
55550;BME280;41397;49.972;18.944;2023-02-25T11:58:40;99784.13;;;10.75;53.90
55550;BME280;41397;49.972;18.944;2023-02-25T12:11:50;99813.38;;;9.79;55.71
55550;BME280;41397;49.972;18.944;2023-02-25T12:18:15;99812.20;;;10.01;56.65
55550;BME280;41397;49.972;18.944;2023-02-25T12:52:07;99896.73;;;8.73;64.02
55550;BME280;41397;49.972;18.944;2023-02-25T13:08:45;99892.39;;;9.01;64.61
55550;BME280;41397;49.972;18.944;2023-02-25T13:15:15;99906.96;;;9.21;64.44
55550;BME280;41397;49.972;18.944;2023-02-25T13:24:48;99914.33;;;9.40;64.31
55550;BME280;41397;49.972;18.944;2023-02-25T13:34:33;99913.77;;;9.46;64.37
55550;BME280;41397;49.972;18.944;2023-02-25T13:41:07;99918.98;;;9.59;64.05
55550;BME280;41397;49.972;18.944;2023-02-25T14:26:44;99957.74;;;9.13;59.66
55550;BME280;41397;49.972;18.944;2023-02-25T14:39:41;99968.55;;;9.24;58.77
55550;BME280;41397;49.972;18.944;2023-02-25T15:08:46;99994.05;;;9.44;57.35
55550;BME280;41397;49.972;18.944;2023-02-25T15:15:15;100001.10;;;9.46;56.99
55550;BME280;41397;49.972;18.944;2023-02-25T15:21:44;100012.74;;;9.48;56.24
55550;BME280;41397;49.972;18.944;2023-02-25T15:24:46;100026.19;;;9.30;56.39
55550;BME280;41397;49.972;18.944;2023-02-25T15:27:52;100038.63;;;9.23;57.17
55550;BME280;41397;49.972;18.944;2023-02-25T15:31:05;100047.45;;;9.06;57.54
55550;BME280;41397;49.972;18.944;2023-02-25T15:40:56;100054.07;;;9.13;57.96
55550;BME280;41397;49.972;18.944;2023-02-25T15:43:49;100054.70;;;9.17;57.54
55550;BME280;41397;49.972;18.944;2023-02-25T15:47:09;100052.82;;;8.96;57.58
55550;BME280;41397;49.972;18.944;2023-02-25T15:50:02;100062.20;;;8.82;57.69
55550;BME280;41397;49.972;18.944;2023-02-25T15:53:07;100060.77;;;8.67;58.50
55550;BME280;41397;49.972;18.944;2023-02-25T16:27:51;100140.91;;;8.10;59.55
55550;BME280;41397;49.972;18.944;2023-02-25T16:42:14;100179.30;;;7.73;61.04
55550;BME280;41397;49.972;18.944;2023-02-25T16:48:45;100183.89;;;7.84;61.01
55550;BME280;41397;49.972;18.944;2023-02-25T16:51:52;100196.75;;;7.93;60.80
55550;BME280;41397;49.972;18.944;2023-02-25T16:55:00;100200.72;;;8.00;60.52
55550;BME280;41397;49.972;18.944;2023-02-25T17:01:22;100205.01;;;9.02;89.32
55550;BME280;41397;49.972;18.944;2023-02-25T17:04:31;100213.41;;;10.25;100.00
55550;BME280;41397;49.972;18.944;2023-02-25T17:07:34;100213.06;;;10.89;100.00
55550;BME280;41397;49.972;18.944;2023-02-25T17:10:43;100208.67;;;12.04;100.00
55550;BME280;41397;49.972;18.944;2023-02-25T17:13:46;100211.92;;;13.00;100.00
55550;BME280;41397;49.972;18.944;2023-02-25T17:16:51;100219.66;;;13.32;98.26
55550;BME280;41397;49.972;18.944;2023-02-25T17:19:55;100219.03;;;13.82;87.72
55550;BME280;41397;49.972;18.944;2023-02-25T17:23:03;100215.23;;;13.21;56.97
55550;BME280;41397;49.972;18.944;2023-02-25T17:26:06;100228.56;;;12.71;55.19
55550;BME280;41397;49.972;18.944;2023-02-25T17:29:12;100238.47;;;12.16;54.80
55550;BME280;41397;49.972;18.944;2023-02-25T17:32:21;100245.91;;;11.77;60.48
55550;BME280;41397;49.972;18.944;2023-02-25T17:35:25;100251.84;;;11.33;56.29
55550;BME280;41397;49.972;18.944;2023-02-25T17:38:27;100248.34;;;10.93;56.97
55550;BME280;41397;49.972;18.944;2023-02-25T17:41:29;100264.25;;;10.68;57.58
55550;BME280;41397;49.972;18.944;2023-02-25T17:47:45;100271.63;;;10.16;58.52
55550;BME280;41397;49.972;18.944;2023-02-25T17:51:02;100283.63;;;10.04;58.58
55550;BME280;41397;49.972;18.944;2023-02-25T17:54:06;100286.39;;;9.83;58.74
55550;BME280;41397;49.972;18.944;2023-02-25T17:57:19;100294.16;;;9.66;59.02
55550;BME280;41397;49.972;18.944;2023-02-25T18:00:30;100301.20;;;9.48;58.95
55550;BME280;41397;49.972;18.944;2023-02-25T18:13:49;100325.88;;;9.03;59.60
55550;BME280;41397;49.972;18.944;2023-02-25T18:23:26;100344.88;;;8.48;59.39
55550;BME280;41397;49.972;18.944;2023-02-25T18:26:30;100355.66;;;8.50;59.80
55550;BME280;41397;49.972;18.944;2023-02-25T18:29:32;100354.31;;;8.55;60.15
55550;BME280;41397;49.972;18.944;2023-02-25T18:32:34;100350.57;;;8.56;60.31
55550;BME280;41397;49.972;18.944;2023-02-25T18:35:41;100362.98;;;8.49;60.00
55550;BME280;41397;49.972;18.944;2023-02-25T18:38:49;100366.07;;;8.56;59.90
55550;BME280;41397;49.972;18.944;2023-02-25T18:42:03;100364.70;;;8.50;59.56
55550;BME280;41397;49.972;18.944;2023-02-25T18:45:14;100366.52;;;8.38;59.36
55550;BME280;41397;49.972;18.944;2023-02-25T18:48:15;100360.00;;;8.41;59.56
55550;BME280;41397;49.972;18.944;2023-02-25T18:51:17;100365.50;;;8.28;59.56
55550;BME280;41397;49.972;18.944;2023-02-25T18:54:18;100366.63;;;8.37;60.14
55550;BME280;41397;49.972;18.944;2023-02-25T19:00:48;100366.52;;;8.38;60.04
55550;BME280;41397;49.972;18.944;2023-02-25T19:07:01;100374.38;;;8.43;60.36
55550;BME280;41397;49.972;18.944;2023-02-25T19:23:45;100395.23;;;8.31;60.93
55550;BME280;41397;49.972;18.944;2023-02-25T19:26:47;100394.48;;;8.29;61.01
55550;BME280;41397;49.972;18.944;2023-02-25T19:29:50;100390.43;;;8.35;60.73
55550;BME280;41397;49.972;18.944;2023-02-25T19:32:52;100405.27;;;8.31;60.72
55550;BME280;41397;49.972;18.944;2023-02-25T19:35:55;100399.93;;;8.29;60.58
55550;BME280;41397;49.972;18.944;2023-02-25T19:38:57;100400.30;;;8.25;60.93
55550;BME280;41397;49.972;18.944;2023-02-25T19:41:58;100406.24;;;8.18;61.15
55550;BME280;41397;49.972;18.944;2023-02-25T19:45:00;100403.64;;;8.28;61.56
55550;BME280;41397;49.972;18.944;2023-02-25T19:48:02;100413.17;;;8.22;61.66
55550;BME280;41397;49.972;18.944;2023-02-25T19:51:07;100413.66;;;8.16;61.76
55550;BME280;41397;49.972;18.944;2023-02-25T19:57:43;100414.83;;;8.01;62.20
55550;BME280;41397;49.972;18.944;2023-02-25T20:25:01;100451.14;;;7.77;65.02
55550;BME280;41397;49.972;18.944;2023-02-25T20:28:05;100445.04;;;7.74;65.24
55550;BME280;41397;49.972;18.944;2023-02-25T20:31:19;100448.00;;;7.71;65.52
55550;BME280;41397;49.972;18.944;2023-02-25T20:41:12;100451.81;;;7.68;65.96
55550;BME280;41397;49.972;18.944;2023-02-25T20:44:14;100453.14;;;7.63;66.05
55550;BME280;41397;49.972;18.944;2023-02-25T20:47:31;100462.17;;;7.63;66.10
55550;BME280;41397;49.972;18.944;2023-02-25T20:50:36;100467.98;;;7.59;66.23
55550;BME280;41397;49.972;18.944;2023-02-25T20:53:38;100473.52;;;7.57;66.46
55550;BME280;41397;49.972;18.944;2023-02-25T20:56:41;100471.66;;;7.58;66.56
55550;BME280;41397;49.972;18.944;2023-02-25T20:59:43;100473.62;;;7.55;66.61
55550;BME280;41397;49.972;18.944;2023-02-25T21:09:49;100485.89;;;7.37;67.10
55550;BME280;41397;49.972;18.944;2023-02-25T21:12:51;100487.15;;;7.44;67.42
55550;BME280;41397;49.972;18.944;2023-02-25T21:16:07;100494.88;;;7.50;67.61
55550;BME280;41397;49.972;18.944;2023-02-25T21:46:41;100500.66;;;7.46;67.52
55550;BME280;41397;49.972;18.944;2023-02-25T22:00:30;100516.37;;;7.29;67.96
55550;BME280;41397;49.972;18.944;2023-02-25T22:10:52;100536.16;;;7.06;68.60
55550;BME280;41397;49.972;18.944;2023-02-25T22:24:51;100542.93;;;7.26;68.34
55550;BME280;41397;49.972;18.944;2023-02-25T22:31:30;100550.95;;;7.27;68.54
55550;BME280;41397;49.972;18.944;2023-02-25T22:34:34;100554.54;;;7.28;68.17
55550;BME280;41397;49.972;18.944;2023-02-25T22:44:31;100565.20;;;7.31;68.14
55550;BME280;41397;49.972;18.944;2023-02-25T22:47:48;100569.35;;;7.37;68.37
55550;BME280;41397;49.972;18.944;2023-02-25T22:50:53;100581.96;;;7.25;67.98
55550;BME280;41397;49.972;18.944;2023-02-25T22:53:56;100581.08;;;7.11;68.55
55550;BME280;41397;49.972;18.944;2023-02-25T23:00:36;100587.94;;;7.17;68.81
55550;BME280;41397;49.972;18.944;2023-02-25T23:03:40;100588.93;;;7.16;68.83
55550;BME280;41397;49.972;18.944;2023-02-25T23:06:44;100590.78;;;7.16;68.46
55550;BME280;41397;49.972;18.944;2023-02-25T23:09:46;100589.47;;;7.08;68.17
55550;BME280;41397;49.972;18.944;2023-02-25T23:12:47;100586.53;;;7.11;67.93
55550;BME280;41397;49.972;18.944;2023-02-25T23:15:59;100595.14;;;7.18;67.64
55550;BME280;41397;49.972;18.944;2023-02-25T23:19:02;100599.48;;;7.21;67.59
55550;BME280;41397;49.972;18.944;2023-02-25T23:22:05;100606.23;;;7.15;67.60
55550;BME280;41397;49.972;18.944;2023-02-25T23:25:10;100614.62;;;7.12;67.38
55550;BME280;41397;49.972;18.944;2023-02-25T23:28:11;100616.03;;;7.18;67.54
55550;BME280;41397;49.972;18.944;2023-02-25T23:34:24;100618.18;;;7.25;67.16
55550;BME280;41397;49.972;18.944;2023-02-25T23:37:26;100634.63;;;7.24;67.30
55550;BME280;41397;49.972;18.944;2023-02-25T23:40:27;100636.48;;;7.23;67.03
55550;BME280;41397;49.972;18.944;2023-02-25T23:43:29;100639.76;;;7.28;66.97
55550;BME280;41397;49.972;18.944;2023-02-25T23:46:31;100642.47;;;7.28;66.75
55550;BME280;41397;49.972;18.944;2023-02-25T23:49:32;100652.36;;;7.29;66.70
55550;BME280;41397;49.972;18.944;2023-02-25T23:52:34;100664.23;;;7.28;66.58
55550;BME280;41397;49.972;18.944;2023-02-25T23:55:35;100670.08;;;7.22;66.61
55550;BME280;41397;49.972;18.944;2023-02-25T23:58:37;100675.12;;;7.28;66.56
